sensor_id;sensor_type;location;lat;lon;timestamp;temperature;humidity
2112;DHT22;1062;52.538;13.400;2024-03-23T00:53:38;8.10;99.90
2112;DHT22;1062;52.538;13.400;2024-03-23T00:56:04;8.10;99.90
2112;DHT22;1062;52.538;13.400;2024-03-23T00:58:30;8.00;99.90
2112;DHT22;1062;52.538;13.400;2024-03-23T01:00:55;7.90;99.90
2112;DHT22;1062;52.538;13.400;2024-03-23T01:03:21;7.90;99.90
2112;DHT22;1062;52.538;13.400;2024-03-23T01:05:47;8.00;99.90
2112;DHT22;1062;52.538;13.400;2024-03-23T01:08:14;8.10;99.90
2112;DHT22;1062;52.538;13.400;2024-03-23T01:10:40;8.10;99.90
2112;DHT22;1062;52.538;13.400;2024-03-23T01:13:05;8.00;99.90
2112;DHT22;1062;52.538;13.400;2024-03-23T01:15:31;8.10;99.90
2112;DHT22;1062;52.538;13.400;2024-03-23T01:17:57;8.10;99.90
2112;DHT22;1062;52.538;13.400;2024-03-23T01:20:22;8.10;99.90
2112;DHT22;1062;52.538;13.400;2024-03-23T01:22:48;8.10;99.90
2112;DHT22;1062;52.538;13.400;2024-03-23T01:25:13;8.10;99.90
2112;DHT22;1062;52.538;13.400;2024-03-23T01:27:39;8.20;99.90
2112;DHT22;1062;52.538;13.400;2024-03-23T01:30:05;8.20;99.90
2112;DHT22;1062;52.538;13.400;2024-03-23T01:32:32;8.20;99.90
2112;DHT22;1062;52.538;13.400;2024-03-23T01:34:57;8.10;99.90
2112;DHT22;1062;52.538;13.400;2024-03-23T01:37:23;8.10;99.90
2112;DHT22;1062;52.538;13.400;2024-03-23T01:39:48;8.10;99.90
2112;DHT22;1062;52.538;13.400;2024-03-23T01:42:14;8.00;99.90
2112;DHT22;1062;52.538;13.400;2024-03-23T01:44:39;8.00;99.90
2112;DHT22;1062;52.538;13.400;2024-03-23T01:47:06;8.00;99.90
2112;DHT22;1062;52.538;13.400;2024-03-23T01:49:33;8.00;99.90
2112;DHT22;1062;52.538;13.400;2024-03-23T01:51:59;8.00;99.90
2112;DHT22;1062;52.538;13.400;2024-03-23T01:54:25;8.00;99.90
2112;DHT22;1062;52.538;13.400;2024-03-23T01:56:51;8.00;99.90
2112;DHT22;1062;52.538;13.400;2024-03-23T01:59:16;7.90;99.90
2112;DHT22;1062;52.538;13.400;2024-03-23T02:01:42;8.00;99.90
2112;DHT22;1062;52.538;13.400;2024-03-23T02:04:07;8.10;99.90
2112;DHT22;1062;52.538;13.400;2024-03-23T02:06:35;8.00;99.90
2112;DHT22;1062;52.538;13.400;2024-03-23T02:09:00;8.00;99.90
2112;DHT22;1062;52.538;13.400;2024-03-23T02:11:26;8.00;99.90
2112;DHT22;1062;52.538;13.400;2024-03-23T02:13:51;8.00;99.90
2112;DHT22;1062;52.538;13.400;2024-03-23T02:16:17;8.00;99.90
2112;DHT22;1062;52.538;13.400;2024-03-23T02:18:43;8.00;99.90
2112;DHT22;1062;52.538;13.400;2024-03-23T02:21:08;7.90;99.90
2112;DHT22;1062;52.538;13.400;2024-03-23T02:23:34;7.90;99.90
2112;DHT22;1062;52.538;13.400;2024-03-23T02:26:00;7.80;99.90
2112;DHT22;1062;52.538;13.400;2024-03-23T02:28:25;7.90;99.90
2112;DHT22;1062;52.538;13.400;2024-03-23T02:30:51;7.90;99.90
2112;DHT22;1062;52.538;13.400;2024-03-23T02:33:17;8.00;99.90
2112;DHT22;1062;52.538;13.400;2024-03-23T02:35:46;7.90;99.90
2112;DHT22;1062;52.538;13.400;2024-03-23T02:38:12;7.80;99.90
2112;DHT22;1062;52.538;13.400;2024-03-23T02:40:38;7.90;99.90
2112;DHT22;1062;52.538;13.400;2024-03-23T02:43:04;7.90;99.90
2112;DHT22;1062;52.538;13.400;2024-03-23T02:45:30;7.90;99.90
2112;DHT22;1062;52.538;13.400;2024-03-23T02:47:55;7.80;99.90
2112;DHT22;1062;52.538;13.400;2024-03-23T02:50:21;7.90;99.90
2112;DHT22;1062;52.538;13.400;2024-03-23T02:52:47;7.70;99.90
2112;DHT22;1062;52.538;13.400;2024-03-23T02:55:13;7.70;99.90
2112;DHT22;1062;52.538;13.400;2024-03-23T02:57:40;7.70;99.90
2112;DHT22;1062;52.538;13.400;2024-03-23T03:00:06;7.60;99.90
2112;DHT22;1062;52.538;13.400;2024-03-23T03:02:32;7.70;99.90
2112;DHT22;1062;52.538;13.400;2024-03-23T03:04:58;7.80;99.90
2112;DHT22;1062;52.538;13.400;2024-03-23T03:07:24;7.90;99.90
2112;DHT22;1062;52.538;13.400;2024-03-23T03:09:49;7.70;99.90
2112;DHT22;1062;52.538;13.400;2024-03-23T03:12:15;7.60;99.90
2112;DHT22;1062;52.538;13.400;2024-03-23T03:14:40;7.60;99.90
2112;DHT22;1062;52.538;13.400;2024-03-23T03:17:06;7.60;99.90
2112;DHT22;1062;52.538;13.400;2024-03-23T03:19:32;7.60;99.90
2112;DHT22;1062;52.538;13.400;2024-03-23T03:21:57;7.60;99.90
2112;DHT22;1062;52.538;13.400;2024-03-23T03:24:23;7.70;99.90
2112;DHT22;1062;52.538;13.400;2024-03-23T03:26:49;7.70;99.90
2112;DHT22;1062;52.538;13.400;2024-03-23T03:29:15;7.80;99.90
2112;DHT22;1062;52.538;13.400;2024-03-23T03:31:41;7.70;99.90
2112;DHT22;1062;52.538;13.400;2024-03-23T03:34:06;7.70;99.90
2112;DHT22;1062;52.538;13.400;2024-03-23T03:36:32;7.60;99.90
2112;DHT22;1062;52.538;13.400;2024-03-23T03:38:57;7.60;99.90
2112;DHT22;1062;52.538;13.400;2024-03-23T03:41:23;7.50;99.90
2112;DHT22;1062;52.538;13.400;2024-03-23T03:43:48;7.40;99.90
2112;DHT22;1062;52.538;13.400;2024-03-23T03:46:14;7.60;99.90
2112;DHT22;1062;52.538;13.400;2024-03-23T03:48:40;7.50;99.90
2112;DHT22;1062;52.538;13.400;2024-03-23T03:51:05;7.40;99.90
2112;DHT22;1062;52.538;13.400;2024-03-23T03:53:31;7.40;99.90
2112;DHT22;1062;52.538;13.400;2024-03-23T03:56:00;7.30;99.90
2112;DHT22;1062;52.538;13.400;2024-03-23T03:58:26;7.30;99.90
2112;DHT22;1062;52.538;13.400;2024-03-23T04:00:51;7.40;99.90
2112;DHT22;1062;52.538;13.400;2024-03-23T04:03:17;7.40;99.90
2112;DHT22;1062;52.538;13.400;2024-03-23T04:05:43;7.20;99.90
2112;DHT22;1062;52.538;13.400;2024-03-23T04:08:08;7.20;99.90
2112;DHT22;1062;52.538;13.400;2024-03-23T04:10:34;7.20;99.90
2112;DHT22;1062;52.538;13.400;2024-03-23T04:13:00;7.10;99.90
2112;DHT22;1062;52.538;13.400;2024-03-23T04:15:26;7.10;99.90
2112;DHT22;1062;52.538;13.400;2024-03-23T04:17:51;7.10;99.90
2112;DHT22;1062;52.538;13.400;2024-03-23T04:20:17;7.10;99.90
2112;DHT22;1062;52.538;13.400;2024-03-23T04:22:43;7.10;99.90
2112;DHT22;1062;52.538;13.400;2024-03-23T04:25:09;7.20;99.90
2112;DHT22;1062;52.538;13.400;2024-03-23T04:27:38;7.10;99.90
2112;DHT22;1062;52.538;13.400;2024-03-23T04:30:05;7.10;99.90
2112;DHT22;1062;52.538;13.400;2024-03-23T04:32:36;7.00;99.90
2112;DHT22;1062;52.538;13.400;2024-03-23T04:35:01;6.90;99.90
2112;DHT22;1062;52.538;13.400;2024-03-23T04:37:32;6.90;99.90
2112;DHT22;1062;52.538;13.400;2024-03-23T04:39:58;6.90;99.90
2112;DHT22;1062;52.538;13.400;2024-03-23T04:42:24;6.90;99.90
2112;DHT22;1062;52.538;13.400;2024-03-23T04:44:50;6.80;99.90
2112;DHT22;1062;52.538;13.400;2024-03-23T04:47:16;6.70;99.90
2112;DHT22;1062;52.538;13.400;2024-03-23T04:49:42;6.70;99.90
2112;DHT22;1062;52.538;13.400;2024-03-23T04:52:07;6.80;99.90
2112;DHT22;1062;52.538;13.400;2024-03-23T04:54:33;6.80;99.90
2112;DHT22;1062;52.538;13.400;2024-03-23T04:56:58;6.80;99.90
2112;DHT22;1062;52.538;13.400;2024-03-23T04:59:24;6.80;99.90
2112;DHT22;1062;52.538;13.400;2024-03-23T05:01:50;6.80;99.90
2112;DHT22;1062;52.538;13.400;2024-03-23T05:04:16;6.60;99.90
2112;DHT22;1062;52.538;13.400;2024-03-23T05:06:41;6.60;99.90
2112;DHT22;1062;52.538;13.400;2024-03-23T05:09:07;6.70;99.90
2112;DHT22;1062;52.538;13.400;2024-03-23T05:11:33;6.70;99.90
2112;DHT22;1062;52.538;13.400;2024-03-23T05:13:59;6.80;99.90
2112;DHT22;1062;52.538;13.400;2024-03-23T05:16:26;6.70;99.90
2112;DHT22;1062;52.538;13.400;2024-03-23T05:18:51;6.60;99.90
2112;DHT22;1062;52.538;13.400;2024-03-23T05:21:17;6.60;99.90
2112;DHT22;1062;52.538;13.400;2024-03-23T05:23:43;6.60;99.90
2112;DHT22;1062;52.538;13.400;2024-03-23T05:26:09;6.70;99.90
2112;DHT22;1062;52.538;13.400;2024-03-23T05:28:35;6.80;99.90
2112;DHT22;1062;52.538;13.400;2024-03-23T05:31:01;6.70;99.90
2112;DHT22;1062;52.538;13.400;2024-03-23T05:33:26;6.70;99.90
2112;DHT22;1062;52.538;13.400;2024-03-23T05:35:59;6.60;99.90
2112;DHT22;1062;52.538;13.400;2024-03-23T05:38:25;6.60;99.90
2112;DHT22;1062;52.538;13.400;2024-03-23T05:40:57;6.70;99.90
2112;DHT22;1062;52.538;13.400;2024-03-23T05:43:24;6.70;99.90
2112;DHT22;1062;52.538;13.400;2024-03-23T05:45:59;6.70;99.90
2112;DHT22;1062;52.538;13.400;2024-03-23T05:48:26;6.70;99.90
2112;DHT22;1062;52.538;13.400;2024-03-23T05:50:52;6.70;99.90
2112;DHT22;1062;52.538;13.400;2024-03-23T05:53:18;6.90;99.90
2112;DHT22;1062;52.538;13.400;2024-03-23T05:55:47;6.90;99.90
2112;DHT22;1062;52.538;13.400;2024-03-23T05:58:16;6.90;99.90
2112;DHT22;1062;52.538;13.400;2024-03-23T06:00:43;7.00;99.90
2112;DHT22;1062;52.538;13.400;2024-03-23T06:03:09;7.00;99.90
2112;DHT22;1062;52.538;13.400;2024-03-23T06:05:36;6.90;99.90
2112;DHT22;1062;52.538;13.400;2024-03-23T06:08:01;6.90;99.90
2112;DHT22;1062;52.538;13.400;2024-03-23T06:10:28;7.00;99.90
2112;DHT22;1062;52.538;13.400;2024-03-23T06:12:53;7.00;99.90
2112;DHT22;1062;52.538;13.400;2024-03-23T06:15:19;7.00;99.90
2112;DHT22;1062;52.538;13.400;2024-03-23T06:17:45;7.10;99.90
2112;DHT22;1062;52.538;13.400;2024-03-23T06:20:10;7.00;99.90
2112;DHT22;1062;52.538;13.400;2024-03-23T06:22:36;7.10;99.90
2112;DHT22;1062;52.538;13.400;2024-03-23T06:25:02;7.10;99.90
2112;DHT22;1062;52.538;13.400;2024-03-23T06:27:28;7.10;99.90
2112;DHT22;1062;52.538;13.400;2024-03-23T06:29:54;7.20;99.90
2112;DHT22;1062;52.538;13.400;2024-03-23T06:32:20;7.20;99.90
2112;DHT22;1062;52.538;13.400;2024-03-23T06:34:46;7.10;99.90
2112;DHT22;1062;52.538;13.400;2024-03-23T06:37:11;7.20;99.90
2112;DHT22;1062;52.538;13.400;2024-03-23T06:39:38;7.10;99.90
2112;DHT22;1062;52.538;13.400;2024-03-23T06:42:04;7.10;99.90
2112;DHT22;1062;52.538;13.400;2024-03-23T06:44:29;7.10;99.90
2112;DHT22;1062;52.538;13.400;2024-03-23T06:46:55;7.10;99.90
2112;DHT22;1062;52.538;13.400;2024-03-23T06:49:22;7.10;99.90
2112;DHT22;1062;52.538;13.400;2024-03-23T06:51:48;7.20;99.90
2112;DHT22;1062;52.538;13.400;2024-03-23T06:54:13;7.30;99.90
2112;DHT22;1062;52.538;13.400;2024-03-23T06:56:40;7.40;99.90
2112;DHT22;1062;52.538;13.400;2024-03-23T06:59:06;7.40;99.90
2112;DHT22;1062;52.538;13.400;2024-03-23T07:01:31;7.50;99.90
2112;DHT22;1062;52.538;13.400;2024-03-23T07:03:57;7.40;99.90
2112;DHT22;1062;52.538;13.400;2024-03-23T07:06:22;7.40;99.90
2112;DHT22;1062;52.538;13.400;2024-03-23T07:08:48;7.50;99.90
2112;DHT22;1062;52.538;13.400;2024-03-23T07:11:23;7.40;99.90
2112;DHT22;1062;52.538;13.400;2024-03-23T07:13:50;7.50;99.90
2112;DHT22;1062;52.538;13.400;2024-03-23T07:16:16;7.50;99.90
2112;DHT22;1062;52.538;13.400;2024-03-23T07:18:42;7.30;99.90
2112;DHT22;1062;52.538;13.400;2024-03-23T07:21:08;7.30;99.90
2112;DHT22;1062;52.538;13.400;2024-03-23T07:23:33;7.40;99.90
2112;DHT22;1062;52.538;13.400;2024-03-23T07:26:04;7.40;99.90
2112;DHT22;1062;52.538;13.400;2024-03-23T07:28:33;7.40;99.90
2112;DHT22;1062;52.538;13.400;2024-03-23T07:31:09;7.40;99.90
2112;DHT22;1062;52.538;13.400;2024-03-23T07:33:36;7.40;99.90
2112;DHT22;1062;52.538;13.400;2024-03-23T07:36:02;7.50;99.90
2112;DHT22;1062;52.538;13.400;2024-03-23T07:38:29;7.50;99.90
2112;DHT22;1062;52.538;13.400;2024-03-23T07:43:34;7.50;99.90
2112;DHT22;1062;52.538;13.400;2024-03-23T07:46:00;7.50;99.90
2112;DHT22;1062;52.538;13.400;2024-03-23T07:48:26;7.60;99.90
2112;DHT22;1062;52.538;13.400;2024-03-23T07:51:21;7.60;99.90
2112;DHT22;1062;52.538;13.400;2024-03-23T07:53:47;7.60;99.90
2112;DHT22;1062;52.538;13.400;2024-03-23T07:56:14;7.60;99.90
2112;DHT22;1062;52.538;13.400;2024-03-23T07:58:41;7.50;99.90
2112;DHT22;1062;52.538;13.400;2024-03-23T08:01:12;7.40;99.90
2112;DHT22;1062;52.538;13.400;2024-03-23T08:03:41;7.40;99.90
2112;DHT22;1062;52.538;13.400;2024-03-23T08:06:27;7.30;99.90
2112;DHT22;1062;52.538;13.400;2024-03-23T08:08:54;7.10;99.90
2112;DHT22;1062;52.538;13.400;2024-03-23T08:13:52;7.00;99.90
2112;DHT22;1062;52.538;13.400;2024-03-23T08:16:18;6.80;99.90
2112;DHT22;1062;52.538;13.400;2024-03-23T08:18:43;6.90;99.90
2112;DHT22;1062;52.538;13.400;2024-03-23T08:21:09;6.90;99.90
2112;DHT22;1062;52.538;13.400;2024-03-23T08:23:35;6.70;99.90
2112;DHT22;1062;52.538;13.400;2024-03-23T08:26:04;6.80;99.90
2112;DHT22;1062;52.538;13.400;2024-03-23T08:28:30;6.90;99.90
2112;DHT22;1062;52.538;13.400;2024-03-23T08:30:56;6.90;99.90
2112;DHT22;1062;52.538;13.400;2024-03-23T08:33:23;6.80;99.90
2112;DHT22;1062;52.538;13.400;2024-03-23T08:36:08;6.70;99.90
2112;DHT22;1062;52.538;13.400;2024-03-23T08:38:34;6.80;99.90
2112;DHT22;1062;52.538;13.400;2024-03-23T08:41:02;6.80;99.90
2112;DHT22;1062;52.538;13.400;2024-03-23T08:43:28;6.70;99.90
2112;DHT22;1062;52.538;13.400;2024-03-23T08:46:06;6.70;99.90
2112;DHT22;1062;52.538;13.400;2024-03-23T08:48:33;6.60;99.90
2112;DHT22;1062;52.538;13.400;2024-03-23T08:51:03;6.40;99.90
2112;DHT22;1062;52.538;13.400;2024-03-23T08:53:29;6.30;99.90
2112;DHT22;1062;52.538;13.400;2024-03-23T08:55:56;6.30;99.90
2112;DHT22;1062;52.538;13.400;2024-03-23T08:58:24;6.10;99.90
2112;DHT22;1062;52.538;13.400;2024-03-23T09:00:50;6.10;99.90
2112;DHT22;1062;52.538;13.400;2024-03-23T09:03:16;6.10;99.90
2112;DHT22;1062;52.538;13.400;2024-03-23T09:05:42;6.00;99.90
2112;DHT22;1062;52.538;13.400;2024-03-23T09:08:07;6.00;99.90
2112;DHT22;1062;52.538;13.400;2024-03-23T09:10:40;5.90;99.90
2112;DHT22;1062;52.538;13.400;2024-03-23T09:13:05;5.80;99.90
2112;DHT22;1062;52.538;13.400;2024-03-23T09:15:36;5.90;99.90
2112;DHT22;1062;52.538;13.400;2024-03-23T09:18:03;5.70;99.90
2112;DHT22;1062;52.538;13.400;2024-03-23T09:20:29;5.60;99.90
2112;DHT22;1062;52.538;13.400;2024-03-23T09:22:57;5.50;99.90
2112;DHT22;1062;52.538;13.400;2024-03-23T09:25:23;5.60;99.90
2112;DHT22;1062;52.538;13.400;2024-03-23T09:27:49;5.50;99.90
2112;DHT22;1062;52.538;13.400;2024-03-23T09:30:15;5.50;99.90
2112;DHT22;1062;52.538;13.400;2024-03-23T09:32:44;5.50;99.90
2112;DHT22;1062;52.538;13.400;2024-03-23T09:35:10;5.50;99.90
2112;DHT22;1062;52.538;13.400;2024-03-23T09:37:37;5.50;99.90
2112;DHT22;1062;52.538;13.400;2024-03-23T09:40:02;5.50;99.90
2112;DHT22;1062;52.538;13.400;2024-03-23T09:42:28;5.50;99.90
2112;DHT22;1062;52.538;13.400;2024-03-23T09:44:57;5.40;99.90
2112;DHT22;1062;52.538;13.400;2024-03-23T09:47:24;5.30;99.90
2112;DHT22;1062;52.538;13.400;2024-03-23T09:49:50;5.40;99.90
2112;DHT22;1062;52.538;13.400;2024-03-23T09:52:16;5.30;99.90
2112;DHT22;1062;52.538;13.400;2024-03-23T09:54:42;5.30;99.90
2112;DHT22;1062;52.538;13.400;2024-03-23T09:57:08;5.30;99.90
2112;DHT22;1062;52.538;13.400;2024-03-23T09:59:33;5.40;99.90
2112;DHT22;1062;52.538;13.400;2024-03-23T10:02:01;5.30;99.90
2112;DHT22;1062;52.538;13.400;2024-03-23T10:07:15;5.30;99.90
2112;DHT22;1062;52.538;13.400;2024-03-23T10:09:42;5.30;99.90
2112;DHT22;1062;52.538;13.400;2024-03-23T10:12:12;5.50;99.90
2112;DHT22;1062;52.538;13.400;2024-03-23T10:14:39;5.60;99.90
2112;DHT22;1062;52.538;13.400;2024-03-23T10:17:16;5.60;99.90
2112;DHT22;1062;52.538;13.400;2024-03-23T10:19:49;5.60;99.90
2112;DHT22;1062;52.538;13.400;2024-03-23T10:22:18;5.60;99.90
2112;DHT22;1062;52.538;13.400;2024-03-23T10:24:44;5.60;99.90
2112;DHT22;1062;52.538;13.400;2024-03-23T10:27:15;5.50;99.90
2112;DHT22;1062;52.538;13.400;2024-03-23T10:29:42;5.40;99.90
2112;DHT22;1062;52.538;13.400;2024-03-23T10:32:08;5.40;99.90
2112;DHT22;1062;52.538;13.400;2024-03-23T10:34:35;5.30;99.90
2112;DHT22;1062;52.538;13.400;2024-03-23T10:37:02;5.40;99.90
2112;DHT22;1062;52.538;13.400;2024-03-23T10:39:33;5.30;99.90
2112;DHT22;1062;52.538;13.400;2024-03-23T10:42:03;5.30;99.90
2112;DHT22;1062;52.538;13.400;2024-03-23T10:44:29;5.40;99.90
2112;DHT22;1062;52.538;13.400;2024-03-23T10:46:57;5.40;99.90
2112;DHT22;1062;52.538;13.400;2024-03-23T10:49:30;5.50;99.90
2112;DHT22;1062;52.538;13.400;2024-03-23T10:52:06;5.50;99.90
2112;DHT22;1062;52.538;13.400;2024-03-23T10:54:32;5.60;99.90
2112;DHT22;1062;52.538;13.400;2024-03-23T10:57:29;5.50;99.90
2112;DHT22;1062;52.538;13.400;2024-03-23T10:59:57;5.60;99.90
2112;DHT22;1062;52.538;13.400;2024-03-23T11:02:23;5.60;99.90
2112;DHT22;1062;52.538;13.400;2024-03-23T11:04:48;5.80;99.90
2112;DHT22;1062;52.538;13.400;2024-03-23T11:07:33;5.80;99.90
2112;DHT22;1062;52.538;13.400;2024-03-23T11:09:59;5.90;99.90
2112;DHT22;1062;52.538;13.400;2024-03-23T11:15:04;6.00;99.90
2112;DHT22;1062;52.538;13.400;2024-03-23T11:17:30;6.00;99.90
2112;DHT22;1062;52.538;13.400;2024-03-23T11:20:04;6.00;99.90
2112;DHT22;1062;52.538;13.400;2024-03-23T11:22:45;6.20;99.90
2112;DHT22;1062;52.538;13.400;2024-03-23T11:25:24;6.00;99.90
2112;DHT22;1062;52.538;13.400;2024-03-23T11:30:49;6.40;99.90
2112;DHT22;1062;52.538;13.400;2024-03-23T11:33:15;6.30;99.90
2112;DHT22;1062;52.538;13.400;2024-03-23T11:35:41;6.40;99.90
2112;DHT22;1062;52.538;13.400;2024-03-23T11:38:08;6.50;99.90
2112;DHT22;1062;52.538;13.400;2024-03-23T11:40:44;6.70;99.90
2112;DHT22;1062;52.538;13.400;2024-03-23T11:43:13;7.00;99.90
2112;DHT22;1062;52.538;13.400;2024-03-23T11:45:44;7.10;99.90
2112;DHT22;1062;52.538;13.400;2024-03-23T11:48:16;7.00;99.90
2112;DHT22;1062;52.538;13.400;2024-03-23T11:50:50;7.20;99.90
2112;DHT22;1062;52.538;13.400;2024-03-23T11:53:17;7.20;99.90
2112;DHT22;1062;52.538;13.400;2024-03-23T11:55:55;7.40;99.90
2112;DHT22;1062;52.538;13.400;2024-03-23T11:58:22;7.50;99.90
2112;DHT22;1062;52.538;13.400;2024-03-23T12:01:03;7.30;99.90
2112;DHT22;1062;52.538;13.400;2024-03-23T12:03:30;7.50;99.90
2112;DHT22;1062;52.538;13.400;2024-03-23T12:05:58;7.50;99.90
2112;DHT22;1062;52.538;13.400;2024-03-23T12:08:25;7.40;99.90
2112;DHT22;1062;52.538;13.400;2024-03-23T12:10:51;7.50;99.90
2112;DHT22;1062;52.538;13.400;2024-03-23T12:13:21;7.30;99.90
2112;DHT22;1062;52.538;13.400;2024-03-23T12:15:49;7.20;99.90
2112;DHT22;1062;52.538;13.400;2024-03-23T12:18:15;7.10;99.90
2112;DHT22;1062;52.538;13.400;2024-03-23T12:20:41;7.10;99.90
2112;DHT22;1062;52.538;13.400;2024-03-23T12:23:13;7.30;99.90
2112;DHT22;1062;52.538;13.400;2024-03-23T12:25:39;7.10;99.90
2112;DHT22;1062;52.538;13.400;2024-03-23T12:28:05;7.20;99.90
2112;DHT22;1062;52.538;13.400;2024-03-23T12:30:36;7.20;99.90
2112;DHT22;1062;52.538;13.400;2024-03-23T12:33:03;7.20;99.90
2112;DHT22;1062;52.538;13.400;2024-03-23T12:35:28;7.30;99.90
2112;DHT22;1062;52.538;13.400;2024-03-23T12:37:54;7.40;99.90
2112;DHT22;1062;52.538;13.400;2024-03-23T12:40:20;7.40;99.90
2112;DHT22;1062;52.538;13.400;2024-03-23T12:42:45;7.60;99.90
2112;DHT22;1062;52.538;13.400;2024-03-23T12:45:11;7.60;99.90
2112;DHT22;1062;52.538;13.400;2024-03-23T12:47:36;7.50;99.90
2112;DHT22;1062;52.538;13.400;2024-03-23T12:50:02;7.70;99.90
2112;DHT22;1062;52.538;13.400;2024-03-23T12:52:28;7.80;99.90
2112;DHT22;1062;52.538;13.400;2024-03-23T12:54:55;7.70;99.90
2112;DHT22;1062;52.538;13.400;2024-03-23T12:57:25;7.60;99.90
2112;DHT22;1062;52.538;13.400;2024-03-23T12:59:52;7.80;99.90
2112;DHT22;1062;52.538;13.400;2024-03-23T13:02:19;7.90;99.90
2112;DHT22;1062;52.538;13.400;2024-03-23T13:04:46;7.80;99.90
2112;DHT22;1062;52.538;13.400;2024-03-23T13:07:12;8.00;99.90
2112;DHT22;1062;52.538;13.400;2024-03-23T13:09:38;8.00;99.90
2112;DHT22;1062;52.538;13.400;2024-03-23T13:12:03;7.80;99.90
2112;DHT22;1062;52.538;13.400;2024-03-23T13:14:29;7.80;99.90
2112;DHT22;1062;52.538;13.400;2024-03-23T13:16:55;7.90;99.90
2112;DHT22;1062;52.538;13.400;2024-03-23T13:19:20;8.10;99.90
2112;DHT22;1062;52.538;13.400;2024-03-23T13:21:48;7.90;99.90
2112;DHT22;1062;52.538;13.400;2024-03-23T13:24:14;8.00;99.90
2112;DHT22;1062;52.538;13.400;2024-03-23T13:26:40;8.20;99.90
2112;DHT22;1062;52.538;13.400;2024-03-23T13:29:05;8.10;99.90
2112;DHT22;1062;52.538;13.400;2024-03-23T13:31:31;8.20;99.90
2112;DHT22;1062;52.538;13.400;2024-03-23T13:33:57;8.50;99.90
2112;DHT22;1062;52.538;13.400;2024-03-23T13:36:22;8.80;99.90
2112;DHT22;1062;52.538;13.400;2024-03-23T13:38:48;8.70;99.90
2112;DHT22;1062;52.538;13.400;2024-03-23T13:41:13;8.70;99.90
2112;DHT22;1062;52.538;13.400;2024-03-23T13:43:39;8.70;99.90
2112;DHT22;1062;52.538;13.400;2024-03-23T13:46:06;8.90;99.90
2112;DHT22;1062;52.538;13.400;2024-03-23T13:48:31;9.00;99.90
2112;DHT22;1062;52.538;13.400;2024-03-23T13:51:00;8.90;99.90
2112;DHT22;1062;52.538;13.400;2024-03-23T13:53:26;8.80;99.90
2112;DHT22;1062;52.538;13.400;2024-03-23T13:55:52;8.80;99.90
2112;DHT22;1062;52.538;13.400;2024-03-23T13:58:18;8.80;99.90
2112;DHT22;1062;52.538;13.400;2024-03-23T14:00:44;8.90;99.90
2112;DHT22;1062;52.538;13.400;2024-03-23T14:03:10;9.30;99.90
2112;DHT22;1062;52.538;13.400;2024-03-23T14:05:36;9.30;99.90
2112;DHT22;1062;52.538;13.400;2024-03-23T14:08:05;9.40;99.90
2112;DHT22;1062;52.538;13.400;2024-03-23T14:10:30;9.30;99.90
2112;DHT22;1062;52.538;13.400;2024-03-23T14:12:56;9.20;99.90
2112;DHT22;1062;52.538;13.400;2024-03-23T14:15:21;9.20;99.90
2112;DHT22;1062;52.538;13.400;2024-03-23T14:17:47;9.30;99.90
2112;DHT22;1062;52.538;13.400;2024-03-23T14:20:13;9.30;99.90
2112;DHT22;1062;52.538;13.400;2024-03-23T14:22:38;9.20;99.90
2112;DHT22;1062;52.538;13.400;2024-03-23T14:25:06;9.10;99.90
2112;DHT22;1062;52.538;13.400;2024-03-23T14:27:32;9.00;99.90
2112;DHT22;1062;52.538;13.400;2024-03-23T14:29:58;9.00;99.90
2112;DHT22;1062;52.538;13.400;2024-03-23T14:32:23;8.70;99.90
2112;DHT22;1062;52.538;13.400;2024-03-23T14:34:49;8.40;99.90
2112;DHT22;1062;52.538;13.400;2024-03-23T14:37:14;8.20;99.90
2112;DHT22;1062;52.538;13.400;2024-03-23T14:39:43;8.20;99.90
2112;DHT22;1062;52.538;13.400;2024-03-23T14:42:10;8.20;99.90
2112;DHT22;1062;52.538;13.400;2024-03-23T14:44:36;8.20;99.90
2112;DHT22;1062;52.538;13.400;2024-03-23T14:47:01;8.20;99.90
2112;DHT22;1062;52.538;13.400;2024-03-23T14:49:27;8.20;99.90
2112;DHT22;1062;52.538;13.400;2024-03-23T14:51:52;8.20;99.90
2112;DHT22;1062;52.538;13.400;2024-03-23T14:54:18;7.90;99.90
2112;DHT22;1062;52.538;13.400;2024-03-23T14:56:44;7.40;99.90
2112;DHT22;1062;52.538;13.400;2024-03-23T14:59:09;7.20;99.90
2112;DHT22;1062;52.538;13.400;2024-03-23T15:01:35;7.00;99.90
2112;DHT22;1062;52.538;13.400;2024-03-23T15:04:01;6.70;99.90
2112;DHT22;1062;52.538;13.400;2024-03-23T15:06:26;6.00;99.90
2112;DHT22;1062;52.538;13.400;2024-03-23T15:08:52;5.90;99.90
2112;DHT22;1062;52.538;13.400;2024-03-23T15:11:18;6.00;99.90
2112;DHT22;1062;52.538;13.400;2024-03-23T15:13:45;6.10;99.90
2112;DHT22;1062;52.538;13.400;2024-03-23T15:16:17;6.30;99.90
2112;DHT22;1062;52.538;13.400;2024-03-23T15:18:45;6.60;99.90
2112;DHT22;1062;52.538;13.400;2024-03-23T15:21:11;6.70;99.90
2112;DHT22;1062;52.538;13.400;2024-03-23T15:23:37;6.90;99.90
2112;DHT22;1062;52.538;13.400;2024-03-23T15:26:04;6.80;99.90
2112;DHT22;1062;52.538;13.400;2024-03-23T15:28:31;6.90;99.90
2112;DHT22;1062;52.538;13.400;2024-03-23T15:31:15;7.00;99.90
2112;DHT22;1062;52.538;13.400;2024-03-23T15:33:41;7.00;99.90
2112;DHT22;1062;52.538;13.400;2024-03-23T15:36:07;6.90;99.90
2112;DHT22;1062;52.538;13.400;2024-03-23T15:38:32;7.00;99.90
2112;DHT22;1062;52.538;13.400;2024-03-23T15:40:59;7.10;99.90
2112;DHT22;1062;52.538;13.400;2024-03-23T15:43:24;7.00;99.90
2112;DHT22;1062;52.538;13.400;2024-03-23T15:46:01;7.00;99.90
2112;DHT22;1062;52.538;13.400;2024-03-23T15:48:28;7.10;99.90
2112;DHT22;1062;52.538;13.400;2024-03-23T15:50:55;7.20;99.90
2112;DHT22;1062;52.538;13.400;2024-03-23T15:53:22;7.20;99.90
2112;DHT22;1062;52.538;13.400;2024-03-23T15:55:58;7.30;99.90
2112;DHT22;1062;52.538;13.400;2024-03-23T15:58:25;7.30;99.90
2112;DHT22;1062;52.538;13.400;2024-03-23T16:01:04;7.30;99.90
2112;DHT22;1062;52.538;13.400;2024-03-23T16:03:31;7.20;99.90
2112;DHT22;1062;52.538;13.400;2024-03-23T16:05:59;7.20;99.90
2112;DHT22;1062;52.538;13.400;2024-03-23T16:08:25;7.20;99.90
2112;DHT22;1062;52.538;13.400;2024-03-23T16:10:52;7.30;99.90
2112;DHT22;1062;52.538;13.400;2024-03-23T16:13:18;7.30;99.90
2112;DHT22;1062;52.538;13.400;2024-03-23T16:15:44;7.20;99.90
2112;DHT22;1062;52.538;13.400;2024-03-23T16:18:10;7.20;99.90
2112;DHT22;1062;52.538;13.400;2024-03-23T16:20:36;7.20;99.90
2112;DHT22;1062;52.538;13.400;2024-03-23T16:23:02;7.20;99.90
2112;DHT22;1062;52.538;13.400;2024-03-23T16:25:28;7.20;99.90
2112;DHT22;1062;52.538;13.400;2024-03-23T16:27:54;7.10;99.90
2112;DHT22;1062;52.538;13.400;2024-03-23T16:30:20;7.10;99.90
2112;DHT22;1062;52.538;13.400;2024-03-23T16:32:49;7.10;99.90
2112;DHT22;1062;52.538;13.400;2024-03-23T16:35:15;7.00;99.90
2112;DHT22;1062;52.538;13.400;2024-03-23T16:37:41;7.00;99.90
2112;DHT22;1062;52.538;13.400;2024-03-23T16:40:07;7.00;99.90
2112;DHT22;1062;52.538;13.400;2024-03-23T16:42:37;7.00;99.90
2112;DHT22;1062;52.538;13.400;2024-03-23T16:45:03;7.00;99.90
2112;DHT22;1062;52.538;13.400;2024-03-23T16:47:29;6.90;99.90
2112;DHT22;1062;52.538;13.400;2024-03-23T16:49:54;6.90;99.90
2112;DHT22;1062;52.538;13.400;2024-03-23T16:52:20;6.90;99.90
2112;DHT22;1062;52.538;13.400;2024-03-23T16:54:46;6.90;99.90
2112;DHT22;1062;52.538;13.400;2024-03-23T16:57:13;6.80;99.90
2112;DHT22;1062;52.538;13.400;2024-03-23T16:59:39;6.90;99.90
2112;DHT22;1062;52.538;13.400;2024-03-23T17:02:04;6.90;99.90
2112;DHT22;1062;52.538;13.400;2024-03-23T17:04:30;6.80;99.90
2112;DHT22;1062;52.538;13.400;2024-03-23T17:06:56;6.80;99.90